createdAt,value
2023-04-16T00:01:05.787Z,5.60
2023-04-16T00:03:32.891Z,5.61
2023-04-16T00:06:04.169Z,5.60
2023-04-16T00:08:31.347Z,5.58
2023-04-16T00:10:58.113Z,5.55
2023-04-16T00:13:26.192Z,5.62
2023-04-16T00:15:52.912Z,5.64
2023-04-16T00:18:21.138Z,5.57
2023-04-16T00:20:48.860Z,5.62
2023-04-16T00:23:17.453Z,5.64
2023-04-16T00:25:44.167Z,5.64
2023-04-16T00:28:11.191Z,5.56
2023-04-16T00:30:38.305Z,5.58
2023-04-16T00:33:05.508Z,5.61
2023-04-16T00:35:32.343Z,5.60
2023-04-16T00:37:59.211Z,5.62
2023-04-16T00:40:29.738Z,5.60
2023-04-16T00:42:56.589Z,5.62
2023-04-16T00:45:23.845Z,5.56
2023-04-16T00:47:50.815Z,5.47
2023-04-16T00:50:17.876Z,5.46
2023-04-16T00:52:49.534Z,5.52
2023-04-16T00:55:18.625Z,5.52
2023-04-16T00:57:46.144Z,5.46
2023-04-16T01:00:16.591Z,5.49
2023-04-16T01:02:43.588Z,5.52
2023-04-16T01:05:10.464Z,5.49
2023-04-16T01:07:37.289Z,5.52
2023-04-16T01:10:04.361Z,5.51
2023-04-16T01:12:31.211Z,5.45
2023-04-16T01:14:58.191Z,5.48
2023-04-16T01:17:24.977Z,5.42
2023-04-16T01:19:51.827Z,5.34
2023-04-16T01:22:18.640Z,5.49
2023-04-16T01:24:45.643Z,5.50
2023-04-16T01:27:12.344Z,5.58
2023-04-16T01:29:39.169Z,5.58
2023-04-16T01:32:06.116Z,5.59
2023-04-16T01:34:35.991Z,5.59
2023-04-16T01:37:03.927Z,5.62
2023-04-16T01:39:30.749Z,5.54
2023-04-16T01:41:58.084Z,5.56
2023-04-16T01:44:25.640Z,5.61
2023-04-16T01:46:52.890Z,5.63
2023-04-16T01:49:21.430Z,5.59
2023-04-16T01:51:48.505Z,5.50
2023-04-16T01:54:15.385Z,5.41
2023-04-16T01:56:42.174Z,5.45
2023-04-16T01:59:09.480Z,5.46
2023-04-16T02:01:40.464Z,5.41
2023-04-16T02:04:08.266Z,5.45
2023-04-16T02:06:35.043Z,5.41
2023-04-16T02:09:02.043Z,5.45
2023-04-16T02:11:29.108Z,5.50
2023-04-16T02:13:56.299Z,5.48
2023-04-16T02:16:23.216Z,5.50
2023-04-16T02:19:11.722Z,5.39
2023-04-16T02:21:39.866Z,5.39
2023-04-16T02:24:07.034Z,5.49
2023-04-16T02:26:35.065Z,5.42
2023-04-16T02:29:08.203Z,5.44
2023-04-16T02:31:41.239Z,5.48
2023-04-16T02:34:09.981Z,5.48
2023-04-16T02:36:36.787Z,5.50
2023-04-16T02:39:04.070Z,5.52
2023-04-16T02:41:30.894Z,5.47
2023-04-16T02:43:57.672Z,5.46
2023-04-16T02:46:24.816Z,5.48
2023-04-16T02:48:51.785Z,5.49
2023-04-16T02:51:18.714Z,5.39
2023-04-16T02:53:46.225Z,5.41
2023-04-16T02:56:13.807Z,5.44
2023-04-16T02:58:40.969Z,5.44
2023-04-16T03:01:07.880Z,5.45
2023-04-16T03:03:34.867Z,5.48
2023-04-16T03:06:01.610Z,5.46
2023-04-16T03:08:28.645Z,5.44
2023-04-16T03:10:55.573Z,5.44
2023-04-16T03:13:22.487Z,5.46
2023-04-16T03:15:50.072Z,5.45
2023-04-16T03:18:16.934Z,5.43
2023-04-16T03:20:43.768Z,5.42
2023-04-16T03:23:11.659Z,5.39
2023-04-16T03:25:40.641Z,5.38
2023-04-16T03:28:09.171Z,5.38
2023-04-16T03:30:36.896Z,5.30
2023-04-16T03:33:03.797Z,5.23
2023-04-16T03:35:31.315Z,5.24
2023-04-16T03:37:58.112Z,5.18
2023-04-16T03:40:25.296Z,5.15
2023-04-16T03:42:53.026Z,5.07
2023-04-16T03:45:19.999Z,5.02
2023-04-16T03:47:52.759Z,5.00
2023-04-16T03:50:22.829Z,5.02
2023-04-16T03:52:49.713Z,4.92
2023-04-16T03:55:17.681Z,4.99
2023-04-16T03:57:45.373Z,5.06
2023-04-16T04:00:15.156Z,5.11
2023-04-16T04:02:53.007Z,5.08
2023-04-16T04:05:20.471Z,5.15
2023-04-16T04:07:47.996Z,5.20
2023-04-16T04:10:14.962Z,5.24
2023-04-16T04:12:43.190Z,5.25
2023-04-16T04:15:10.920Z,5.30
2023-04-16T04:17:37.774Z,5.24
2023-04-16T04:20:05.007Z,5.21
2023-04-16T04:22:31.977Z,5.19
2023-04-16T04:24:59.090Z,5.18
2023-04-16T04:27:28.406Z,5.07
2023-04-16T04:29:55.154Z,5.11
2023-04-16T04:32:22.671Z,5.07
2023-04-16T04:34:49.709Z,5.03
2023-04-16T04:37:16.662Z,4.97
2023-04-16T04:39:44.241Z,5.02
2023-04-16T04:42:12.560Z,5.02
2023-04-16T04:44:40.388Z,5.11
2023-04-16T04:47:09.115Z,5.15
2023-04-16T04:49:35.998Z,5.12
2023-04-16T04:52:03.490Z,5.08
2023-04-16T04:54:32.703Z,5.09
2023-04-16T04:56:59.701Z,5.11
2023-04-16T04:59:26.769Z,5.16
2023-04-16T05:01:53.847Z,5.19
2023-04-16T05:04:20.608Z,5.22
2023-04-16T05:06:47.424Z,5.26
2023-04-16T05:09:14.140Z,5.22
2023-04-16T05:11:42.200Z,5.15
2023-04-16T05:14:09.018Z,5.18
2023-04-16T05:16:38.871Z,5.25
2023-04-16T05:19:05.711Z,5.18
2023-04-16T05:21:32.567Z,5.18
2023-04-16T05:23:59.270Z,5.20
2023-04-16T05:26:26.200Z,5.23
2023-04-16T05:28:52.998Z,5.23
2023-04-16T05:31:20.087Z,5.19
2023-04-16T05:33:46.882Z,5.23
2023-04-16T05:36:13.868Z,5.29
2023-04-16T05:38:40.868Z,5.43
2023-04-16T05:41:07.652Z,5.38
2023-04-16T05:43:34.529Z,5.45
2023-04-16T05:46:01.404Z,5.48
2023-04-16T05:48:28.267Z,5.48
2023-04-16T05:50:54.983Z,5.39
2023-04-16T05:53:22.257Z,5.43
2023-04-16T05:55:49.248Z,5.46
2023-04-16T05:58:16.129Z,5.53
2023-04-16T06:00:42.943Z,5.52
2023-04-16T06:03:09.835Z,5.31
2023-04-16T06:05:36.926Z,5.40
2023-04-16T06:08:03.781Z,5.52
2023-04-16T06:10:31.800Z,5.48
2023-04-16T06:13:00.006Z,5.44
2023-04-16T06:15:27.294Z,5.43
2023-04-16T06:17:56.143Z,5.45
2023-04-16T06:20:27.571Z,5.42
2023-04-16T06:22:58.491Z,5.40
2023-04-16T06:25:34.158Z,5.46
2023-04-16T06:28:02.537Z,5.49
2023-04-16T06:30:32.234Z,5.48
2023-04-16T06:33:08.514Z,5.46
2023-04-16T06:36:03.991Z,5.43
2023-04-16T06:38:32.041Z,5.55
2023-04-16T06:40:59.826Z,5.53
2023-04-16T06:43:27.130Z,5.58
2023-04-16T06:45:55.324Z,5.53
2023-04-16T06:48:23.578Z,5.47
2023-04-16T06:50:52.989Z,5.49
2023-04-16T06:53:26.836Z,5.52
2023-04-16T06:55:56.871Z,5.63
2023-04-16T06:58:24.538Z,5.56
2023-04-16T07:00:51.448Z,5.56
2023-04-16T07:03:18.545Z,5.55
2023-04-16T07:05:45.428Z,5.50
2023-04-16T07:08:12.308Z,5.56
2023-04-16T07:10:39.684Z,5.54
2023-04-16T07:13:06.775Z,5.52
2023-04-16T07:15:33.604Z,5.50
2023-04-16T07:18:00.882Z,5.54
2023-04-16T07:20:27.761Z,5.52
2023-04-16T07:22:54.920Z,5.49
2023-04-16T07:25:21.814Z,5.54
2023-04-16T07:27:48.559Z,5.58
2023-04-16T07:30:15.884Z,5.52
2023-04-16T07:32:42.763Z,5.50
2023-04-16T07:35:09.782Z,5.52
2023-04-16T07:37:36.450Z,5.58
2023-04-16T07:40:04.645Z,5.65
2023-04-16T07:42:32.003Z,5.63
2023-04-16T07:44:58.781Z,5.63
2023-04-16T07:47:26.560Z,5.73
2023-04-16T07:49:53.852Z,5.86
2023-04-16T07:52:21.108Z,5.92
2023-04-16T07:54:47.874Z,5.78
2023-04-16T07:57:15.761Z,5.81
2023-04-16T07:59:42.989Z,5.74
2023-04-16T08:02:14.353Z,5.81
2023-04-16T08:04:44.768Z,5.88
2023-04-16T08:07:11.923Z,5.85
2023-04-16T08:09:48.596Z,6.01
2023-04-16T08:12:17.177Z,6.03
2023-04-16T08:14:45.763Z,6.04
2023-04-16T08:17:14.039Z,6.07
2023-04-16T08:19:45.198Z,6.08
2023-04-16T08:22:12.728Z,6.16
2023-04-16T08:24:39.742Z,6.12
2023-04-16T08:27:17.899Z,6.16
2023-04-16T08:29:47.586Z,6.19
2023-04-16T08:32:15.439Z,6.18
2023-04-16T08:34:42.465Z,6.15
2023-04-16T08:37:09.752Z,6.15
2023-04-16T08:39:37.895Z,6.22
2023-04-16T08:42:12.210Z,6.20
2023-04-16T08:44:52.102Z,6.28
2023-04-16T08:47:23.890Z,6.38
2023-04-16T08:49:56.814Z,6.35
2023-04-16T08:52:31.313Z,6.39
2023-04-16T08:55:08.918Z,6.36
2023-04-16T08:57:49.371Z,6.35
2023-04-16T09:00:16.921Z,6.41
2023-04-16T09:02:46.062Z,6.42
2023-04-16T09:05:17.338Z,6.39
2023-04-16T09:07:48.270Z,6.40
2023-04-16T09:10:15.746Z,6.37
2023-04-16T09:12:43.821Z,6.53
2023-04-16T09:15:12.014Z,6.59
2023-04-16T09:17:42.113Z,6.67
2023-04-16T09:20:11.073Z,6.68
2023-04-16T09:22:38.799Z,6.64
2023-04-16T09:25:06.649Z,6.60
2023-04-16T09:27:33.609Z,6.72
2023-04-16T09:30:27.054Z,6.71
2023-04-16T09:33:22.771Z,6.74
2023-04-16T09:35:51.878Z,6.84
2023-04-16T09:38:20.189Z,6.55
2023-04-16T09:40:47.732Z,6.62
2023-04-16T09:43:18.762Z,6.74
2023-04-16T09:45:53.315Z,6.73
2023-04-16T09:48:30.392Z,6.73
2023-04-16T09:50:58.603Z,6.74
2023-04-16T09:53:30.391Z,6.86
2023-04-16T09:56:02.270Z,6.77
2023-04-16T09:58:30.532Z,6.87
2023-04-16T10:01:07.264Z,6.91
2023-04-16T10:03:35.872Z,6.89
2023-04-16T10:06:20.840Z,6.99
2023-04-16T10:08:53.813Z,7.07
2023-04-16T10:11:21.699Z,7.08
2023-04-16T10:13:49.284Z,7.06
2023-04-16T10:16:16.375Z,7.01
2023-04-16T10:18:44.915Z,6.99
2023-04-16T10:21:12.918Z,6.98
2023-04-16T10:23:40.711Z,7.10
2023-04-16T10:26:08.112Z,7.23
2023-04-16T10:28:36.489Z,7.24
2023-04-16T10:31:05.664Z,7.21
2023-04-16T10:33:37.653Z,7.25
2023-04-16T10:36:16.187Z,7.16
2023-04-16T10:38:48.517Z,7.19
2023-04-16T10:41:17.559Z,7.35
2023-04-16T10:43:49.540Z,7.30
2023-04-16T10:46:35.728Z,7.48
2023-04-16T10:49:15.191Z,7.52
2023-04-16T10:51:42.572Z,7.79
2023-04-16T10:54:14.702Z,8.02
2023-04-16T10:56:46.025Z,8.54
2023-04-16T10:59:13.757Z,8.85
2023-04-16T11:01:45.544Z,8.71
2023-04-16T11:04:29.357Z,8.46
2023-04-16T11:07:15.655Z,8.04
2023-04-16T11:09:53.310Z,7.64
2023-04-16T11:12:25.073Z,7.28
2023-04-16T11:14:54.731Z,7.27
2023-04-16T11:17:22.770Z,7.08
2023-04-16T11:19:50.729Z,6.95
2023-04-16T11:22:24.186Z,6.99
2023-04-16T11:24:56.395Z,7.12
2023-04-16T11:27:24.462Z,7.13
2023-04-16T11:30:07.643Z,7.23
2023-04-16T11:32:35.603Z,7.27
2023-04-16T11:35:16.844Z,7.34
2023-04-16T11:37:44.222Z,7.49
2023-04-16T11:40:20.536Z,7.51
2023-04-16T11:42:47.594Z,7.40
2023-04-16T11:45:19.961Z,7.49
2023-04-16T11:47:52.485Z,7.40
2023-04-16T11:50:26.632Z,7.53
2023-04-16T11:52:55.840Z,7.71
2023-04-16T11:55:28.112Z,7.74
2023-04-16T11:57:55.097Z,7.63
2023-04-16T12:00:27.219Z,7.51
2023-04-16T12:02:59.060Z,7.55
2023-04-16T12:05:38.909Z,7.49
2023-04-16T12:08:09.831Z,7.53
2023-04-16T12:10:39.062Z,7.38
2023-04-16T12:13:14.280Z,7.50
2023-04-16T12:15:52.819Z,7.53
2023-04-16T12:18:33.454Z,7.48
2023-04-16T12:21:06.820Z,7.25
2023-04-16T12:23:34.356Z,7.38
2023-04-16T12:26:11.004Z,7.78
2023-04-16T12:28:44.341Z,7.92
2023-04-16T12:31:13.137Z,8.10
2023-04-16T12:33:40.805Z,8.13
2023-04-16T12:36:19.024Z,8.02
2023-04-16T12:39:16.434Z,7.95
2023-04-16T12:45:02.976Z,7.86
2023-04-16T12:49:48.612Z,7.49
2023-04-16T12:52:59.892Z,7.44
2023-04-16T12:55:31.607Z,7.51
2023-04-16T12:58:08.951Z,7.53
2023-04-16T13:00:45.402Z,7.57
2023-04-16T13:03:21.352Z,7.52
2023-04-16T13:06:19.828Z,7.59
2023-04-16T13:08:53.512Z,7.54
2023-04-16T13:11:28.714Z,7.47
2023-04-16T13:14:01.261Z,7.43
2023-04-16T13:16:40.800Z,7.50
2023-04-16T13:19:23.672Z,7.51
2023-04-16T13:21:57.218Z,7.23
2023-04-16T13:24:35.240Z,7.36
2023-04-16T13:27:08.713Z,7.35
2023-04-16T13:32:36.299Z,7.21
2023-04-16T13:35:34.304Z,7.31
2023-04-16T13:37:54.125Z,7.31
2023-04-16T13:40:21.580Z,7.11
2023-04-16T13:42:58.349Z,7.05
2023-04-16T13:45:29.707Z,7.08
2023-04-16T13:47:59.113Z,7.09
2023-04-16T13:50:32.154Z,7.12
2023-04-16T13:53:06.234Z,7.10
2023-04-16T13:55:36.666Z,6.99
2023-04-16T13:58:04.355Z,6.88
2023-04-16T14:00:35.428Z,6.93
2023-04-16T14:03:17.157Z,7.15
2023-04-16T14:05:47.177Z,7.20
2023-04-16T14:08:16.641Z,7.19
2023-04-16T14:10:54.503Z,7.32
2023-04-16T14:13:25.001Z,7.31
2023-04-16T14:15:58.839Z,7.32
2023-04-16T14:18:28.747Z,7.45
2023-04-16T14:21:02.747Z,7.45
2023-04-16T14:23:36.233Z,7.49
2023-04-16T14:26:08.504Z,7.49
2023-04-16T14:28:40.590Z,7.47
2023-04-16T14:31:23.654Z,7.34
2023-04-16T14:33:50.545Z,7.31
2023-04-16T14:36:17.401Z,7.35
2023-04-16T14:38:44.591Z,7.23
2023-04-16T14:41:12.826Z,7.31
2023-04-16T14:43:42.940Z,7.28
2023-04-16T14:46:09.958Z,7.28
2023-04-16T14:48:37.043Z,7.30
2023-04-16T14:51:04.260Z,7.31
2023-04-16T14:53:31.261Z,7.24
2023-04-16T14:55:59.155Z,7.22
2023-04-16T14:58:26.563Z,7.23
2023-04-16T15:00:53.596Z,7.20
2023-04-16T15:03:20.772Z,7.16
2023-04-16T15:05:54.861Z,7.23
2023-04-16T15:08:23.040Z,7.33
2023-04-16T15:10:50.822Z,7.37
2023-04-16T15:13:17.967Z,7.34
2023-04-16T15:15:44.918Z,7.34
2023-04-16T15:18:11.762Z,7.33
2023-04-16T15:20:40.072Z,7.37
2023-04-16T15:23:06.984Z,7.24
2023-04-16T15:25:33.772Z,7.23
2023-04-16T15:28:02.573Z,7.13
2023-04-16T15:30:30.189Z,7.13
2023-04-16T15:32:56.981Z,6.97
2023-04-16T15:35:23.775Z,6.99
2023-04-16T15:37:52.761Z,7.04
2023-04-16T15:40:20.655Z,7.05
2023-04-16T15:42:47.417Z,6.97
2023-04-16T15:45:14.563Z,6.93
2023-04-16T15:47:42.104Z,6.87
2023-04-16T15:50:09.666Z,6.86
2023-04-16T15:52:38.741Z,6.81
2023-04-16T15:55:06.309Z,6.84
2023-04-16T15:57:33.105Z,6.91
2023-04-16T16:00:06.887Z,6.91
2023-04-16T16:02:34.660Z,6.95
2023-04-16T16:05:01.782Z,6.92
2023-04-16T16:07:28.757Z,6.94
2023-04-16T16:09:56.376Z,6.85
2023-04-16T16:12:23.693Z,6.83
2023-04-16T16:14:50.951Z,6.75
2023-04-16T16:17:19.154Z,6.73
2023-04-16T16:19:49.360Z,6.73
2023-04-16T16:22:20.414Z,6.69
2023-04-16T16:24:56.612Z,6.68
2023-04-16T16:27:23.451Z,6.77
2023-04-16T16:29:50.394Z,6.75
2023-04-16T16:32:17.130Z,6.84
2023-04-16T16:34:43.921Z,6.84
2023-04-16T16:37:10.860Z,6.88
2023-04-16T16:39:38.862Z,6.91
2023-04-16T16:42:06.012Z,6.88
2023-04-16T16:44:33.156Z,6.88
2023-04-16T16:47:00.364Z,6.87
2023-04-16T16:49:27.348Z,6.92
2023-04-16T16:51:53.981Z,6.91
2023-04-16T16:54:20.924Z,6.92
2023-04-16T16:56:47.773Z,6.89
2023-04-16T16:59:18.390Z,6.92
2023-04-16T17:01:45.603Z,6.92
2023-04-16T17:04:12.589Z,6.77
2023-04-16T17:06:41.909Z,6.74
2023-04-16T17:09:08.851Z,6.68
2023-04-16T17:11:35.993Z,6.74
2023-04-16T17:14:02.754Z,6.67
2023-04-16T17:16:29.538Z,6.66
2023-04-16T17:18:57.337Z,6.59
2023-04-16T17:21:24.974Z,6.56
2023-04-16T17:23:51.742Z,6.57
2023-04-16T17:26:18.636Z,6.51
2023-04-16T17:28:47.548Z,6.49
2023-04-16T17:31:16.650Z,6.48
2023-04-16T17:33:43.908Z,6.43
2023-04-16T17:36:10.701Z,6.39
2023-04-16T17:38:37.359Z,6.40
2023-04-16T17:41:04.361Z,6.41
2023-04-16T17:43:31.313Z,6.44
2023-04-16T17:45:58.202Z,6.44
2023-04-16T17:48:28.014Z,6.52
2023-04-16T17:50:54.756Z,6.55
2023-04-16T17:53:22.578Z,6.50
2023-04-16T17:55:56.952Z,6.41
2023-04-16T17:58:23.867Z,6.30
2023-04-16T18:00:50.695Z,6.32
2023-04-16T18:03:18.764Z,6.41
2023-04-16T18:05:46.781Z,6.42
2023-04-16T18:08:13.390Z,6.49
2023-04-16T18:10:40.156Z,6.43
2023-04-16T18:13:06.844Z,6.45
2023-04-16T18:15:41.570Z,6.45
2023-04-16T18:18:08.386Z,6.41
2023-04-16T18:20:35.414Z,6.44
2023-04-16T18:23:03.149Z,6.45
2023-04-16T18:25:34.581Z,6.47
2023-04-16T18:28:03.795Z,6.49
2023-04-16T18:30:30.750Z,6.44
2023-04-16T18:35:27.125Z,6.42
2023-04-16T18:37:54.871Z,6.37
2023-04-16T18:40:21.574Z,6.38
2023-04-16T18:42:48.554Z,6.40
2023-04-16T18:45:21.164Z,6.41
2023-04-16T18:47:50.142Z,6.41
2023-04-16T18:50:17.074Z,6.48
2023-04-16T18:52:43.816Z,6.47
2023-04-16T18:55:10.743Z,6.51
2023-04-16T18:57:37.482Z,6.42
2023-04-16T19:00:09.435Z,6.39
2023-04-16T19:02:36.269Z,6.43
2023-04-16T19:05:03.027Z,6.43
2023-04-16T19:07:29.751Z,6.43
2023-04-16T19:09:56.941Z,6.42
2023-04-16T19:12:23.791Z,6.42
2023-04-16T19:14:51.781Z,6.36
2023-04-16T19:17:18.506Z,6.38
2023-04-16T19:19:46.738Z,6.40
2023-04-16T19:22:13.498Z,6.43
2023-04-16T19:24:41.500Z,6.40
2023-04-16T19:27:08.150Z,6.48
2023-04-16T19:29:35.645Z,6.46
2023-04-16T19:32:02.700Z,6.36
2023-04-16T19:34:29.485Z,6.35
2023-04-16T19:36:56.199Z,6.37
2023-04-16T19:39:26.740Z,6.36
2023-04-16T19:41:53.465Z,6.33
2023-04-16T19:44:23.329Z,6.36
2023-04-16T19:46:50.164Z,6.22
2023-04-16T19:49:16.894Z,6.19
2023-04-16T19:51:43.600Z,6.30
2023-04-16T19:54:10.285Z,6.29
2023-04-16T19:56:36.984Z,6.32
2023-04-16T19:59:03.809Z,6.35
2023-04-16T20:01:56.480Z,6.39
2023-04-16T20:04:23.896Z,6.41
2023-04-16T20:06:51.381Z,6.39
2023-04-16T20:09:20.044Z,6.38
2023-04-16T20:11:47.340Z,6.42
2023-04-16T20:14:17.318Z,6.47
2023-04-16T20:16:43.995Z,6.46
2023-04-16T20:19:11.273Z,6.30
2023-04-16T20:21:42.720Z,6.33
2023-04-16T20:24:10.739Z,6.29
2023-04-16T20:26:37.631Z,6.36
2023-04-16T20:29:04.350Z,6.21
2023-04-16T20:31:30.969Z,6.23
2023-04-16T20:33:58.107Z,6.33
2023-04-16T20:36:26.070Z,6.33
2023-04-16T20:38:54.069Z,6.36
2023-04-16T20:41:21.362Z,6.31
2023-04-16T20:43:50.321Z,6.28
2023-04-16T20:46:17.801Z,6.31
2023-04-16T20:48:44.825Z,6.36
2023-04-16T20:51:12.822Z,6.35
2023-04-16T20:53:43.994Z,6.38
2023-04-16T20:56:14.769Z,6.34
2023-04-16T20:58:42.174Z,6.30
2023-04-16T21:01:10.257Z,6.33
2023-04-16T21:03:37.421Z,6.29
2023-04-16T21:06:04.693Z,6.29
2023-04-16T21:08:31.664Z,6.25
2023-04-16T21:10:58.645Z,6.27
2023-04-16T21:13:29.683Z,6.30
2023-04-16T21:15:59.539Z,6.26
2023-04-16T21:18:26.574Z,6.33
2023-04-16T21:20:53.303Z,6.33
2023-04-16T21:23:20.193Z,6.29
2023-04-16T21:25:46.880Z,6.20
2023-04-16T21:28:14.111Z,6.15
2023-04-16T21:30:41.435Z,6.21
2023-04-16T21:33:08.483Z,6.29
2023-04-16T21:35:35.432Z,6.27
2023-04-16T21:38:02.166Z,6.26
2023-04-16T21:40:28.934Z,6.20
2023-04-16T21:42:55.645Z,6.24
2023-04-16T21:45:23.288Z,6.21
2023-04-16T21:47:50.091Z,6.24
2023-04-16T21:50:16.872Z,6.21
2023-04-16T21:52:46.729Z,6.28
2023-04-16T21:55:14.406Z,6.20
2023-04-16T21:57:41.109Z,6.19
2023-04-16T22:00:14.441Z,6.20
2023-04-16T22:02:42.241Z,6.22
2023-04-16T22:05:09.487Z,6.16
2023-04-16T22:07:36.781Z,6.18
2023-04-16T22:10:06.850Z,6.22
2023-04-16T22:12:33.676Z,6.24
2023-04-16T22:15:02.917Z,6.12
2023-04-16T22:17:30.159Z,6.09
2023-04-16T22:20:00.459Z,6.08
2023-04-16T22:22:27.144Z,6.08
2023-04-16T22:24:53.912Z,6.10
2023-04-16T22:27:20.532Z,6.11
2023-04-16T22:29:47.396Z,5.97
2023-04-16T22:32:14.149Z,6.06
2023-04-16T22:34:40.971Z,6.07
2023-04-16T22:37:08.182Z,6.03
2023-04-16T22:39:35.031Z,5.98
2023-04-16T22:42:02.626Z,5.96
2023-04-16T22:44:29.392Z,6.01
2023-04-16T22:46:56.197Z,6.03
2023-04-16T22:49:22.864Z,6.00
2023-04-16T22:51:49.692Z,6.10
2023-04-16T22:54:16.349Z,6.14
2023-04-16T22:56:43.068Z,6.07
2023-04-16T22:59:10.080Z,6.07
2023-04-16T23:01:37.208Z,6.09
2023-04-16T23:04:04.053Z,6.04
2023-04-16T23:06:31.620Z,6.08
2023-04-16T23:08:58.515Z,6.15
2023-04-16T23:11:25.390Z,6.04
2023-04-16T23:13:52.514Z,6.06
2023-04-16T23:16:19.255Z,6.15
2023-04-16T23:18:46.124Z,6.20
2023-04-16T23:21:12.838Z,6.13
2023-04-16T23:23:39.534Z,6.16
2023-04-16T23:26:06.427Z,6.18
2023-04-16T23:28:33.495Z,6.14
2023-04-16T23:31:00.420Z,6.14
2023-04-16T23:33:27.291Z,6.17
2023-04-16T23:35:54.083Z,6.13
2023-04-16T23:38:20.912Z,6.06
2023-04-16T23:40:47.598Z,6.05
2023-04-16T23:43:14.324Z,6.08
2023-04-16T23:45:41.195Z,6.09
2023-04-16T23:48:07.936Z,6.10
2023-04-16T23:50:34.682Z,6.19
2023-04-16T23:53:01.470Z,6.11
2023-04-16T23:55:28.134Z,6.10
2023-04-16T23:57:54.786Z,6.08
